Vi Nais — HO4770 — position and weather

sailwx.info

Track history (hours):
 
Tides and Currents Weather Stations Pressure Air Temp Water Temp Dewpoint Dewpoint Depression Visibility Wind Speed Wind Dir Waves Ship Positions

Vi Nais

Last reported at 2017-Dec-10 13:15 UTC. Time now 2017-Dec-17 00:50 UTC.
Position N 26°38' W 079°38'.

Length 58 m; draft 2.7 m.

Type: Cargo ship. MMSI: 356907000.

Date/timePositionNaut miles runAvg speedWind from/ knotsBaromVisibWave heightAir tempDewpointWater temp
2017-Dec-10 13:15N 26°38' W 079°38'2 7.6
2017-Dec-10 12:59N 26°39' W 079°40'4 7.9
2017-Dec-10 12:30N 26°39' W 079°45'4 8.0
2017-Dec-10 12:00N 26°39' W 079°49'4 8.2
2017-Dec-10 11:30N 26°39' W 079°54'4 7.5
2017-Dec-10 11:00N 26°40' W 079°58'3 5.6
2017-Dec-10 10:30N 26°37' W 079°60'4 7.5
2017-Dec-10 10:00N 26°33' W 079°60'4 7.6
2017-Dec-10 09:30N 26°30' W 080°00'4 7.4
2017-Dec-10 09:00N 26°26' W 080°01'4 7.2
2017-Dec-10 08:30N 26°22' W 080°01'4 7.2
2017-Dec-10 08:00N 26°19' W 080°02'4 7.8
2017-Dec-10 07:30N 26°15' W 080°02'4 8.6
2017-Dec-10 07:00N 26°11' W 080°03'4 8.6
2017-Dec-10 06:30N 26°06' W 080°04'3 6.1
2017-Dec-10 06:00N 26°05' W 080°07'0 0.0
2017-Dec-10 05:30N 26°05' W 080°07'0 0.0
2017-Dec-10 05:00N 26°05' W 080°07'0 0.0
2017-Dec-10 04:30N 26°05' W 080°07'0 0.0
2017-Dec-10 04:00N 26°05' W 080°07'0 0.0
2017-Dec-10 03:30N 26°05' W 080°07'0 0.0
2017-Dec-10 03:00N 26°05' W 080°07'0 0.0
2017-Dec-10 02:30N 26°05' W 080°07'0 0.0
2017-Dec-10 02:00N 26°05' W 080°07'0 0.0
2017-Dec-10 01:30N 26°05' W 080°07'0 0.0
2017-Dec-10 01:00N 26°05' W 080°07'0 0.0
2017-Dec-10 00:30N 26°05' W 080°07'0 0.0
2017-Dec-10 00:00N 26°05' W 080°07'0 0.0
2017-Dec-09 23:30N 26°05' W 080°07'0 0.0
2017-Dec-09 23:00N 26°05' W 080°07'1 1.8
2017-Dec-09 22:30N 26°06' W 080°06'1 2.5
2017-Dec-09 22:00N 26°05' W 080°05'2 3.2
2017-Dec-09 21:30N 26°05' W 080°03'5 9.3
2017-Dec-09 21:00N 26°03' W 079°58'5 9.5
2017-Dec-09 20:30N 26°02' W 079°53'5 9.3
2017-Dec-09 20:00N 26°00' W 079°48'4 8.8
2017-Dec-09 19:30N 25°59' W 079°44'4 8.0
2017-Dec-09 19:00N 25°58' W 079°39'4 7.1
2017-Dec-09 18:30N 25°57' W 079°36'3 5.6
2017-Dec-09 18:00N 25°57' W 079°33'3 5.3
2017-Dec-09 17:30N 25°56' W 079°30'  
2017-Dec-07 06:25N 26°36' W 079°36'4 8.6
2017-Dec-07 05:59N 26°37' W 079°40'4 8.1
2017-Dec-07 05:30N 26°39' W 079°44'4 8.3
2017-Dec-07 05:00N 26°41' W 079°48'4 8.2
2017-Dec-07 04:30N 26°43' W 079°52'4 8.1
2017-Dec-07 04:00N 26°44' W 079°56'4 8.0
2017-Dec-07 03:30N 26°46' W 079°60'3 5.6
2017-Dec-07 03:00N 26°46' W 080°03'0 0.0
2017-Dec-07 02:30N 26°46' W 080°03'0 0.0
2017-Dec-07 02:00N 26°46' W 080°03'0 0.0
2017-Dec-07 01:30N 26°46' W 080°03'0 0.0
2017-Dec-07 01:00N 26°46' W 080°03'0 0.0
2017-Dec-07 00:30N 26°46' W 080°03'0 0.0
2017-Dec-07 00:00N 26°46' W 080°03'0 0.0
2017-Dec-06 23:30N 26°46' W 080°03'0 0.0
2017-Dec-06 23:00N 26°46' W 080°03'0 0.0
2017-Dec-06 22:30N 26°46' W 080°03'0 0.0
2017-Dec-06 22:00N 26°46' W 080°03'0 0.0
2017-Dec-06 21:30N 26°46' W 080°03'0 0.0
2017-Dec-06 21:00N 26°46' W 080°03'  
2017-Dec-03 06:10N 26°35' W 079°42'1 7.0
2017-Dec-03 06:00N 26°35' W 079°43'3 6.9
2017-Dec-03 05:30N 26°37' W 079°46'4 7.1
2017-Dec-03 05:00N 26°39' W 079°50'3 7.0
2017-Dec-03 04:30N 26°42' W 079°53'4 7.5
2017-Dec-03 04:00N 26°43' W 079°56'4 7.8
2017-Dec-03 03:31N 26°46' W 079°60'3 0.6
2017-Dec-02 22:16N 26°46' W 080°03'0 0.0
2017-Dec-02 22:00N 26°46' W 080°03'0 0.0
2017-Dec-02 21:30N 26°46' W 080°03'0 0.0
2017-Dec-02 21:00N 26°46' W 080°03'0 0.0
2017-Dec-02 20:30N 26°46' W 080°03'0 0.0
2017-Dec-02 20:00N 26°46' W 080°03'3 5.6
2017-Dec-02 19:31N 26°45' W 080°00'611.2
2017-Dec-02 19:00N 26°41' W 079°56'611.2
2017-Dec-02 18:30N 26°37' W 079°52'611.4
2017-Dec-02 18:00N 26°32' W 079°47'6 0.2
2017-Dec-01 04:11N 26°30' W 079°42'2 7.1
2017-Dec-01 03:57N 26°31' W 079°43'3 7.0
2017-Dec-01 03:30N 26°33' W 079°46'4 7.1
2017-Dec-01 03:00N 26°35' W 079°49'4 7.1
2017-Dec-01 02:30N 26°38' W 079°52'4 7.1
2017-Dec-01 02:00N 26°40' W 079°54'4 7.3
2017-Dec-01 01:30N 26°43' W 079°57'4 7.4
2017-Dec-01 01:00N 26°46' W 080°00'3 5.5
2017-Dec-01 00:30N 26°46' W 080°03'0 0.0
2017-Dec-01 00:01N 26°46' W 080°03'0 0.0
2017-Nov-30 23:30N 26°46' W 080°03'0 0.0
2017-Nov-30 23:00N 26°46' W 080°03'0 0.0
2017-Nov-30 22:30N 26°46' W 080°03'0 0.0
2017-Nov-30 22:00N 26°46' W 080°03'1 1.9
2017-Nov-30 21:30N 26°46' W 080°02'510.2
2017-Nov-30 21:00N 26°43' W 079°58'510.4
2017-Nov-30 20:30N 26°39' W 079°54'510.5
2017-Nov-30 20:00N 26°35' W 079°50'  
Track history (hours):
 
Tides and Currents Weather Stations Pressure Air Temp Water Temp Dewpoint Dewpoint Depression Visibility Wind Speed Wind Dir Waves Ship Positions

Vi Nais

Last reported at 2017-Dec-10 13:15 UTC. Time now 2017-Dec-17 00:50 UTC.
Position N 26°38' W 079°38'.

Length 58 m; draft 2.7 m.

Type: Cargo ship. MMSI: 356907000.

Date/timePositionNaut miles runAvg speedWind from/ knotsBaromVisibWave heightAir tempDewpointWater temp
2017-Dec-10 13:15N 26°38' W 079°38'2 7.6
2017-Dec-10 12:59N 26°39' W 079°40'4 7.9
2017-Dec-10 12:30N 26°39' W 079°45'4 8.0
2017-Dec-10 12:00N 26°39' W 079°49'4 8.2
2017-Dec-10 11:30N 26°39' W 079°54'4 7.5
2017-Dec-10 11:00N 26°40' W 079°58'3 5.6
2017-Dec-10 10:30N 26°37' W 079°60'4 7.5
2017-Dec-10 10:00N 26°33' W 079°60'4 7.6
2017-Dec-10 09:30N 26°30' W 080°00'4 7.4
2017-Dec-10 09:00N 26°26' W 080°01'4 7.2
2017-Dec-10 08:30N 26°22' W 080°01'4 7.2
2017-Dec-10 08:00N 26°19' W 080°02'4 7.8
2017-Dec-10 07:30N 26°15' W 080°02'4 8.6
2017-Dec-10 07:00N 26°11' W 080°03'4 8.6
2017-Dec-10 06:30N 26°06' W 080°04'3 6.1
2017-Dec-10 06:00N 26°05' W 080°07'0 0.0
2017-Dec-10 05:30N 26°05' W 080°07'0 0.0
2017-Dec-10 05:00N 26°05' W 080°07'0 0.0
2017-Dec-10 04:30N 26°05' W 080°07'0 0.0
2017-Dec-10 04:00N 26°05' W 080°07'0 0.0
2017-Dec-10 03:30N 26°05' W 080°07'0 0.0
2017-Dec-10 03:00N 26°05' W 080°07'0 0.0
2017-Dec-10 02:30N 26°05' W 080°07'0 0.0
2017-Dec-10 02:00N 26°05' W 080°07'0 0.0
2017-Dec-10 01:30N 26°05' W 080°07'0 0.0
2017-Dec-10 01:00N 26°05' W 080°07'0 0.0
2017-Dec-10 00:30N 26°05' W 080°07'0 0.0
2017-Dec-10 00:00N 26°05' W 080°07'0 0.0
2017-Dec-09 23:30N 26°05' W 080°07'0 0.0
2017-Dec-09 23:00N 26°05' W 080°07'1 1.8
2017-Dec-09 22:30N 26°06' W 080°06'1 2.5
2017-Dec-09 22:00N 26°05' W 080°05'2 3.2
2017-Dec-09 21:30N 26°05' W 080°03'5 9.3
2017-Dec-09 21:00N 26°03' W 079°58'5 9.5
2017-Dec-09 20:30N 26°02' W 079°53'5 9.3
2017-Dec-09 20:00N 26°00' W 079°48'4 8.8
2017-Dec-09 19:30N 25°59' W 079°44'4 8.0
2017-Dec-09 19:00N 25°58' W 079°39'4 7.1
2017-Dec-09 18:30N 25°57' W 079°36'3 5.6
2017-Dec-09 18:00N 25°57' W 079°33'3 5.3
2017-Dec-09 17:30N 25°56' W 079°30'  
2017-Dec-07 06:25N 26°36' W 079°36'4 8.6
2017-Dec-07 05:59N 26°37' W 079°40'4 8.1
2017-Dec-07 05:30N 26°39' W 079°44'4 8.3
2017-Dec-07 05:00N 26°41' W 079°48'4 8.2
2017-Dec-07 04:30N 26°43' W 079°52'4 8.1
2017-Dec-07 04:00N 26°44' W 079°56'4 8.0
2017-Dec-07 03:30N 26°46' W 079°60'3 5.6
2017-Dec-07 03:00N 26°46' W 080°03'0 0.0
2017-Dec-07 02:30N 26°46' W 080°03'0 0.0
2017-Dec-07 02:00N 26°46' W 080°03'0 0.0
2017-Dec-07 01:30N 26°46' W 080°03'0 0.0
2017-Dec-07 01:00N 26°46' W 080°03'0 0.0
2017-Dec-07 00:30N 26°46' W 080°03'0 0.0
2017-Dec-07 00:00N 26°46' W 080°03'0 0.0
2017-Dec-06 23:30N 26°46' W 080°03'0 0.0
2017-Dec-06 23:00N 26°46' W 080°03'0 0.0
2017-Dec-06 22:30N 26°46' W 080°03'0 0.0
2017-Dec-06 22:00N 26°46' W 080°03'0 0.0
2017-Dec-06 21:30N 26°46' W 080°03'0 0.0
2017-Dec-06 21:00N 26°46' W 080°03'  
2017-Dec-03 06:10N 26°35' W 079°42'1 7.0
2017-Dec-03 06:00N 26°35' W 079°43'3 6.9
2017-Dec-03 05:30N 26°37' W 079°46'4 7.1
2017-Dec-03 05:00N 26°39' W 079°50'3 7.0
2017-Dec-03 04:30N 26°42' W 079°53'4 7.5
2017-Dec-03 04:00N 26°43' W 079°56'4 7.8
2017-Dec-03 03:31N 26°46' W 079°60'3 0.6
2017-Dec-02 22:16N 26°46' W 080°03'0 0.0
2017-Dec-02 22:00N 26°46' W 080°03'0 0.0
2017-Dec-02 21:30N 26°46' W 080°03'0 0.0
2017-Dec-02 21:00N 26°46' W 080°03'0 0.0
2017-Dec-02 20:30N 26°46' W 080°03'0 0.0
2017-Dec-02 20:00N 26°46' W 080°03'3 5.6
2017-Dec-02 19:31N 26°45' W 080°00'611.2
2017-Dec-02 19:00N 26°41' W 079°56'611.2
2017-Dec-02 18:30N 26°37' W 079°52'611.4
2017-Dec-02 18:00N 26°32' W 079°47'6 0.2
2017-Dec-01 04:11N 26°30' W 079°42'2 7.1
2017-Dec-01 03:57N 26°31' W 079°43'3 7.0
2017-Dec-01 03:30N 26°33' W 079°46'4 7.1
2017-Dec-01 03:00N 26°35' W 079°49'4 7.1
2017-Dec-01 02:30N 26°38' W 079°52'4 7.1
2017-Dec-01 02:00N 26°40' W 079°54'4 7.3
2017-Dec-01 01:30N 26°43' W 079°57'4 7.4
2017-Dec-01 01:00N 26°46' W 080°00'3 5.5
2017-Dec-01 00:30N 26°46' W 080°03'0 0.0
2017-Dec-01 00:01N 26°46' W 080°03'0 0.0
2017-Nov-30 23:30N 26°46' W 080°03'0 0.0
2017-Nov-30 23:00N 26°46' W 080°03'0 0.0
2017-Nov-30 22:30N 26°46' W 080°03'0 0.0
2017-Nov-30 22:00N 26°46' W 080°03'1 1.9
2017-Nov-30 21:30N 26°46' W 080°02'510.2
2017-Nov-30 21:00N 26°43' W 079°58'510.4
2017-Nov-30 20:30N 26°39' W 079°54'510.5
2017-Nov-30 20:00N 26°35' W 079°50'  

Dump ship's entire track history